sensor_id;sensor_type;location;lat;lon;timestamp;P1;durP1;ratioP1;P2;durP2;ratioP2
7432;SDS011;32233;49.500;7.764;2023-01-29T00:01:56;4.60;;;4.20;;
7432;SDS011;32233;49.500;7.764;2023-01-29T00:04:22;4.43;;;3.53;;
7432;SDS011;32233;49.500;7.764;2023-01-29T00:06:49;3.97;;;3.67;;
7432;SDS011;32233;49.500;7.764;2023-01-29T00:09:16;5.03;;;3.23;;
7432;SDS011;32233;49.500;7.764;2023-01-29T00:11:43;5.33;;;3.73;;
7432;SDS011;32233;49.500;7.764;2023-01-29T00:14:10;4.00;;;3.70;;
7432;SDS011;32233;49.500;7.764;2023-01-29T00:16:36;4.07;;;3.67;;
7432;SDS011;32233;49.500;7.764;2023-01-29T00:19:03;4.37;;;3.97;;
7432;SDS011;32233;49.500;7.764;2023-01-29T00:21:30;4.97;;;4.00;;
7432;SDS011;32233;49.500;7.764;2023-01-29T00:23:57;4.20;;;3.67;;
7432;SDS011;32233;49.500;7.764;2023-01-29T00:26:25;5.50;;;4.10;;
7432;SDS011;32233;49.500;7.764;2023-01-29T00:28:52;5.63;;;3.70;;
7432;SDS011;32233;49.500;7.764;2023-01-29T00:31:21;5.37;;;4.10;;
7432;SDS011;32233;49.500;7.764;2023-01-29T00:33:49;4.53;;;4.13;;
7432;SDS011;32233;49.500;7.764;2023-01-29T00:36:17;6.23;;;3.90;;
7432;SDS011;32233;49.500;7.764;2023-01-29T00:38:44;4.97;;;4.30;;
7432;SDS011;32233;49.500;7.764;2023-01-29T00:41:21;5.23;;;4.73;;
7432;SDS011;32233;49.500;7.764;2023-01-29T00:44:06;4.83;;;4.30;;
7432;SDS011;32233;49.500;7.764;2023-01-29T00:46:51;4.60;;;4.10;;
7432;SDS011;32233;49.500;7.764;2023-01-29T00:49:18;5.10;;;4.13;;
7432;SDS011;32233;49.500;7.764;2023-01-29T00:51:44;5.33;;;4.23;;
7432;SDS011;32233;49.500;7.764;2023-01-29T00:54:31;4.87;;;4.17;;
7432;SDS011;32233;49.500;7.764;2023-01-29T00:56:58;4.10;;;3.80;;
7432;SDS011;32233;49.500;7.764;2023-01-29T00:59:25;3.70;;;3.40;;
7432;SDS011;32233;49.500;7.764;2023-01-29T01:01:51;3.90;;;3.60;;
7432;SDS011;32233;49.500;7.764;2023-01-29T01:04:36;5.43;;;3.93;;
7432;SDS011;32233;49.500;7.764;2023-01-29T01:07:03;5.37;;;3.90;;
7432;SDS011;32233;49.500;7.764;2023-01-29T01:09:29;4.60;;;4.20;;
7432;SDS011;32233;49.500;7.764;2023-01-29T01:12:14;4.43;;;4.03;;
7432;SDS011;32233;49.500;7.764;2023-01-29T01:14:41;4.77;;;4.20;;
7432;SDS011;32233;49.500;7.764;2023-01-29T01:17:08;4.23;;;3.90;;
7432;SDS011;32233;49.500;7.764;2023-01-29T01:19:34;4.60;;;3.43;;
7432;SDS011;32233;49.500;7.764;2023-01-29T01:22:01;7.63;;;4.40;;
7432;SDS011;32233;49.500;7.764;2023-01-29T01:24:30;5.03;;;4.50;;
7432;SDS011;32233;49.500;7.764;2023-01-29T01:26:57;5.13;;;4.23;;
7432;SDS011;32233;49.500;7.764;2023-01-29T01:29:23;4.50;;;4.10;;
7432;SDS011;32233;49.500;7.764;2023-01-29T01:31:51;3.90;;;3.60;;
7432;SDS011;32233;49.500;7.764;2023-01-29T01:34:18;5.57;;;3.90;;
7432;SDS011;32233;49.500;7.764;2023-01-29T01:36:45;4.60;;;4.00;;
7432;SDS011;32233;49.500;7.764;2023-01-29T01:39:11;4.00;;;3.70;;
7432;SDS011;32233;49.500;7.764;2023-01-29T01:41:38;4.07;;;3.77;;
7432;SDS011;32233;49.500;7.764;2023-01-29T01:44:05;5.20;;;3.70;;
7432;SDS011;32233;49.500;7.764;2023-01-29T01:46:33;4.10;;;3.40;;
7432;SDS011;32233;49.500;7.764;2023-01-29T01:49:12;4.53;;;4.03;;
7432;SDS011;32233;49.500;7.764;2023-01-29T01:51:42;4.90;;;3.80;;
7432;SDS011;32233;49.500;7.764;2023-01-29T01:54:16;4.63;;;3.83;;
7432;SDS011;32233;49.500;7.764;2023-01-29T01:56:49;3.87;;;3.57;;
7432;SDS011;32233;49.500;7.764;2023-01-29T01:59:20;4.07;;;3.77;;
7432;SDS011;32233;49.500;7.764;2023-01-29T02:01:48;3.90;;;3.43;;
7432;SDS011;32233;49.500;7.764;2023-01-29T02:04:20;3.80;;;3.50;;
7432;SDS011;32233;49.500;7.764;2023-01-29T02:07:08;4.13;;;3.73;;
7432;SDS011;32233;49.500;7.764;2023-01-29T02:09:59;3.67;;;3.30;;
7432;SDS011;32233;49.500;7.764;2023-01-29T02:12:32;4.17;;;3.70;;
7432;SDS011;32233;49.500;7.764;2023-01-29T02:14:59;3.90;;;3.60;;
7432;SDS011;32233;49.500;7.764;2023-01-29T02:17:25;4.60;;;3.77;;
7432;SDS011;32233;49.500;7.764;2023-01-29T02:28:04;5.10;;;3.80;;
7432;SDS011;32233;49.500;7.764;2023-01-29T02:30:40;4.73;;;4.00;;
7432;SDS011;32233;49.500;7.764;2023-01-29T02:41:37;5.30;;;4.13;;
7432;SDS011;32233;49.500;7.764;2023-01-29T02:44:38;6.30;;;4.00;;
7432;SDS011;32233;49.500;7.764;2023-01-29T02:47:20;4.73;;;3.90;;
7432;SDS011;32233;49.500;7.764;2023-01-29T02:52:26;5.70;;;4.10;;
7432;SDS011;32233;49.500;7.764;2023-01-29T02:55:11;5.03;;;4.00;;
7432;SDS011;32233;49.500;7.764;2023-01-29T02:57:43;5.77;;;3.80;;
7432;SDS011;32233;49.500;7.764;2023-01-29T03:02:59;4.93;;;4.43;;
7432;SDS011;32233;49.500;7.764;2023-01-29T03:05:43;5.57;;;4.13;;
7432;SDS011;32233;49.500;7.764;2023-01-29T03:08:19;4.97;;;4.57;;
7432;SDS011;32233;49.500;7.764;2023-01-29T03:11:03;4.73;;;4.33;;
7432;SDS011;32233;49.500;7.764;2023-01-29T03:13:39;5.37;;;4.27;;
7432;SDS011;32233;49.500;7.764;2023-01-29T03:18:46;4.60;;;3.63;;
7432;SDS011;32233;49.500;7.764;2023-01-29T03:21:18;4.70;;;4.27;;
7432;SDS011;32233;49.500;7.764;2023-01-29T03:24:09;5.90;;;4.57;;
7432;SDS011;32233;49.500;7.764;2023-01-29T03:26:57;4.93;;;4.37;;
7432;SDS011;32233;49.500;7.764;2023-01-29T03:29:47;5.50;;;4.57;;
7432;SDS011;32233;49.500;7.764;2023-01-29T03:32:45;7.00;;;4.83;;
7432;SDS011;32233;49.500;7.764;2023-01-29T03:35:14;5.30;;;4.23;;
7432;SDS011;32233;49.500;7.764;2023-01-29T03:38:03;4.27;;;3.87;;
7432;SDS011;32233;49.500;7.764;2023-01-29T03:40:39;4.30;;;3.90;;
7432;SDS011;32233;49.500;7.764;2023-01-29T03:46:37;5.53;;;4.17;;
7432;SDS011;32233;49.500;7.764;2023-01-29T03:57:11;5.47;;;4.60;;
7432;SDS011;32233;49.500;7.764;2023-01-29T04:02:50;5.83;;;4.27;;
7432;SDS011;32233;49.500;7.764;2023-01-29T04:05:24;5.40;;;4.03;;
7432;SDS011;32233;49.500;7.764;2023-01-29T04:08:09;6.20;;;3.90;;
7432;SDS011;32233;49.500;7.764;2023-01-29T04:10:43;7.93;;;4.90;;
7432;SDS011;32233;49.500;7.764;2023-01-29T04:13:13;5.57;;;4.10;;
7432;SDS011;32233;49.500;7.764;2023-01-29T04:15:49;4.40;;;3.97;;
7432;SDS011;32233;49.500;7.764;2023-01-29T04:18:36;4.83;;;4.10;;
7432;SDS011;32233;49.500;7.764;2023-01-29T04:21:05;6.67;;;4.20;;
7432;SDS011;32233;49.500;7.764;2023-01-29T04:23:32;4.73;;;4.10;;
7432;SDS011;32233;49.500;7.764;2023-01-29T04:34:53;5.33;;;4.10;;
7432;SDS011;32233;49.500;7.764;2023-01-29T04:37:28;5.33;;;4.07;;
7432;SDS011;32233;49.500;7.764;2023-01-29T04:42:58;7.37;;;4.80;;
7432;SDS011;32233;49.500;7.764;2023-01-29T04:45:49;6.10;;;4.43;;
7432;SDS011;32233;49.500;7.764;2023-01-29T04:51:48;7.73;;;4.57;;
7432;SDS011;32233;49.500;7.764;2023-01-29T04:54:25;5.37;;;4.13;;
7432;SDS011;32233;49.500;7.764;2023-01-29T04:57:11;6.77;;;4.80;;
7432;SDS011;32233;49.500;7.764;2023-01-29T04:59:45;5.80;;;4.43;;
7432;SDS011;32233;49.500;7.764;2023-01-29T05:02:15;5.70;;;4.50;;
7432;SDS011;32233;49.500;7.764;2023-01-29T05:04:43;6.57;;;4.70;;
7432;SDS011;32233;49.500;7.764;2023-01-29T05:07:11;6.00;;;4.67;;
7432;SDS011;32233;49.500;7.764;2023-01-29T05:09:41;6.77;;;4.73;;
7432;SDS011;32233;49.500;7.764;2023-01-29T05:12:10;7.27;;;5.20;;
7432;SDS011;32233;49.500;7.764;2023-01-29T05:14:40;4.70;;;4.13;;
7432;SDS011;32233;49.500;7.764;2023-01-29T05:17:13;6.17;;;4.90;;
7432;SDS011;32233;49.500;7.764;2023-01-29T05:19:43;9.00;;;4.87;;
7432;SDS011;32233;49.500;7.764;2023-01-29T05:22:11;5.60;;;5.00;;
7432;SDS011;32233;49.500;7.764;2023-01-29T05:24:40;5.90;;;5.10;;
7432;SDS011;32233;49.500;7.764;2023-01-29T05:27:08;5.10;;;4.10;;
7432;SDS011;32233;49.500;7.764;2023-01-29T05:30:00;4.33;;;3.97;;
7432;SDS011;32233;49.500;7.764;2023-01-29T05:32:26;6.17;;;4.73;;
7432;SDS011;32233;49.500;7.764;2023-01-29T05:34:53;6.97;;;4.70;;
7432;SDS011;32233;49.500;7.764;2023-01-29T05:37:19;7.13;;;4.40;;
7432;SDS011;32233;49.500;7.764;2023-01-29T05:39:46;5.80;;;4.90;;
7432;SDS011;32233;49.500;7.764;2023-01-29T05:42:12;5.73;;;4.53;;
7432;SDS011;32233;49.500;7.764;2023-01-29T05:44:39;5.67;;;4.40;;
7432;SDS011;32233;49.500;7.764;2023-01-29T05:47:05;5.73;;;4.70;;
7432;SDS011;32233;49.500;7.764;2023-01-29T05:49:32;7.70;;;4.73;;
7432;SDS011;32233;49.500;7.764;2023-01-29T05:51:58;7.20;;;4.73;;
7432;SDS011;32233;49.500;7.764;2023-01-29T05:54:25;7.47;;;5.17;;
7432;SDS011;32233;49.500;7.764;2023-01-29T05:56:51;8.87;;;5.20;;
7432;SDS011;32233;49.500;7.764;2023-01-29T05:59:18;7.37;;;5.30;;
7432;SDS011;32233;49.500;7.764;2023-01-29T06:01:45;8.20;;;5.03;;
7432;SDS011;32233;49.500;7.764;2023-01-29T06:04:11;6.03;;;4.93;;
7432;SDS011;32233;49.500;7.764;2023-01-29T06:06:38;5.43;;;4.50;;
7432;SDS011;32233;49.500;7.764;2023-01-29T06:09:04;7.20;;;4.90;;
7432;SDS011;32233;49.500;7.764;2023-01-29T06:11:30;6.17;;;4.33;;
7432;SDS011;32233;49.500;7.764;2023-01-29T06:13:58;5.67;;;4.53;;
7432;SDS011;32233;49.500;7.764;2023-01-29T06:16:25;6.63;;;4.60;;
7432;SDS011;32233;49.500;7.764;2023-01-29T06:18:51;4.50;;;4.10;;
7432;SDS011;32233;49.500;7.764;2023-01-29T06:21:18;8.37;;;5.33;;
7432;SDS011;32233;49.500;7.764;2023-01-29T06:23:45;8.10;;;4.60;;
7432;SDS011;32233;49.500;7.764;2023-01-29T06:26:14;6.00;;;4.87;;
7432;SDS011;32233;49.500;7.764;2023-01-29T06:28:41;6.47;;;5.03;;
7432;SDS011;32233;49.500;7.764;2023-01-29T06:31:07;5.60;;;4.90;;
7432;SDS011;32233;49.500;7.764;2023-01-29T06:33:54;7.83;;;5.20;;
7432;SDS011;32233;49.500;7.764;2023-01-29T06:36:20;6.40;;;5.30;;
7432;SDS011;32233;49.500;7.764;2023-01-29T06:38:47;8.00;;;5.03;;
7432;SDS011;32233;49.500;7.764;2023-01-29T06:41:15;6.67;;;4.63;;
7432;SDS011;32233;49.500;7.764;2023-01-29T06:43:44;7.20;;;4.90;;
7432;SDS011;32233;49.500;7.764;2023-01-29T06:46:11;7.63;;;4.90;;
7432;SDS011;32233;49.500;7.764;2023-01-29T06:48:37;7.20;;;5.17;;
7432;SDS011;32233;49.500;7.764;2023-01-29T06:51:05;7.60;;;5.20;;
7432;SDS011;32233;49.500;7.764;2023-01-29T06:53:33;6.87;;;4.73;;
7432;SDS011;32233;49.500;7.764;2023-01-29T06:56:01;6.40;;;4.37;;
7432;SDS011;32233;49.500;7.764;2023-01-29T06:58:27;6.70;;;4.70;;
7432;SDS011;32233;49.500;7.764;2023-01-29T07:01:01;6.10;;;4.73;;
7432;SDS011;32233;49.500;7.764;2023-01-29T07:03:31;5.60;;;4.27;;
7432;SDS011;32233;49.500;7.764;2023-01-29T07:05:58;6.40;;;4.70;;
7432;SDS011;32233;49.500;7.764;2023-01-29T07:08:25;6.77;;;4.80;;
7432;SDS011;32233;49.500;7.764;2023-01-29T07:10:51;6.07;;;4.87;;
7432;SDS011;32233;49.500;7.764;2023-01-29T07:13:18;6.97;;;5.17;;
7432;SDS011;32233;49.500;7.764;2023-01-29T07:15:44;6.87;;;5.07;;
7432;SDS011;32233;49.500;7.764;2023-01-29T07:18:11;11.93;;;7.07;;
7432;SDS011;32233;49.500;7.764;2023-01-29T07:20:38;10.20;;;7.37;;
7432;SDS011;32233;49.500;7.764;2023-01-29T07:23:07;11.33;;;7.37;;
7432;SDS011;32233;49.500;7.764;2023-01-29T07:25:37;9.77;;;6.60;;
7432;SDS011;32233;49.500;7.764;2023-01-29T07:28:03;8.77;;;5.77;;
7432;SDS011;32233;49.500;7.764;2023-01-29T07:30:30;8.60;;;5.90;;
7432;SDS011;32233;49.500;7.764;2023-01-29T07:33:03;9.10;;;5.23;;
7432;SDS011;32233;49.500;7.764;2023-01-29T07:35:39;7.10;;;5.50;;
7432;SDS011;32233;49.500;7.764;2023-01-29T07:38:07;7.60;;;5.73;;
7432;SDS011;32233;49.500;7.764;2023-01-29T07:40:35;7.90;;;6.63;;
7432;SDS011;32233;49.500;7.764;2023-01-29T07:43:03;7.60;;;5.70;;
7432;SDS011;32233;49.500;7.764;2023-01-29T07:45:32;7.73;;;6.20;;
7432;SDS011;32233;49.500;7.764;2023-01-29T07:48:00;8.97;;;6.23;;
7432;SDS011;32233;49.500;7.764;2023-01-29T07:50:27;9.33;;;5.83;;
7432;SDS011;32233;49.500;7.764;2023-01-29T07:52:54;9.83;;;6.73;;
7432;SDS011;32233;49.500;7.764;2023-01-29T07:55:20;7.67;;;5.60;;
7432;SDS011;32233;49.500;7.764;2023-01-29T07:57:47;8.90;;;5.77;;
7432;SDS011;32233;49.500;7.764;2023-01-29T08:00:19;8.33;;;5.80;;
7432;SDS011;32233;49.500;7.764;2023-01-29T08:02:46;7.13;;;5.97;;
7432;SDS011;32233;49.500;7.764;2023-01-29T08:05:13;8.67;;;6.30;;
7432;SDS011;32233;49.500;7.764;2023-01-29T08:07:39;7.93;;;5.93;;
7432;SDS011;32233;49.500;7.764;2023-01-29T08:10:06;6.63;;;5.30;;
7432;SDS011;32233;49.500;7.764;2023-01-29T08:12:32;7.93;;;5.17;;
7432;SDS011;32233;49.500;7.764;2023-01-29T08:14:59;10.27;;;6.20;;
7432;SDS011;32233;49.500;7.764;2023-01-29T08:17:26;8.53;;;6.33;;
7432;SDS011;32233;49.500;7.764;2023-01-29T08:19:52;7.93;;;5.87;;
7432;SDS011;32233;49.500;7.764;2023-01-29T08:22:18;6.70;;;5.40;;
7432;SDS011;32233;49.500;7.764;2023-01-29T08:24:45;9.60;;;5.87;;
7432;SDS011;32233;49.500;7.764;2023-01-29T08:27:25;9.97;;;6.20;;
7432;SDS011;32233;49.500;7.764;2023-01-29T08:29:51;8.43;;;6.43;;
7432;SDS011;32233;49.500;7.764;2023-01-29T08:32:18;12.30;;;7.97;;
7432;SDS011;32233;49.500;7.764;2023-01-29T08:34:45;8.93;;;7.03;;
7432;SDS011;32233;49.500;7.764;2023-01-29T08:37:11;8.60;;;6.77;;
7432;SDS011;32233;49.500;7.764;2023-01-29T08:39:37;8.47;;;5.90;;
7432;SDS011;32233;49.500;7.764;2023-01-29T08:42:04;8.60;;;7.63;;
7432;SDS011;32233;49.500;7.764;2023-01-29T08:44:31;32.17;;;24.60;;
7432;SDS011;32233;49.500;7.764;2023-01-29T08:46:57;7.93;;;5.90;;
7432;SDS011;32233;49.500;7.764;2023-01-29T08:49:24;7.20;;;5.20;;
7432;SDS011;32233;49.500;7.764;2023-01-29T08:51:50;7.27;;;5.27;;
7432;SDS011;32233;49.500;7.764;2023-01-29T08:54:17;8.47;;;6.47;;
7432;SDS011;32233;49.500;7.764;2023-01-29T08:56:43;8.77;;;5.67;;
7432;SDS011;32233;49.500;7.764;2023-01-29T08:59:10;7.77;;;6.03;;
7432;SDS011;32233;49.500;7.764;2023-01-29T09:01:37;13.50;;;10.37;;
7432;SDS011;32233;49.500;7.764;2023-01-29T09:04:03;14.47;;;11.13;;
7432;SDS011;32233;49.500;7.764;2023-01-29T09:06:30;11.30;;;7.20;;
7432;SDS011;32233;49.500;7.764;2023-01-29T09:08:56;10.07;;;7.43;;
7432;SDS011;32233;49.500;7.764;2023-01-29T09:11:23;11.03;;;8.50;;
7432;SDS011;32233;49.500;7.764;2023-01-29T09:13:49;8.70;;;5.73;;
7432;SDS011;32233;49.500;7.764;2023-01-29T09:16:16;9.17;;;6.10;;
7432;SDS011;32233;49.500;7.764;2023-01-29T09:18:42;9.07;;;7.53;;
7432;SDS011;32233;49.500;7.764;2023-01-29T09:21:10;8.50;;;6.53;;
7432;SDS011;32233;49.500;7.764;2023-01-29T09:23:36;13.97;;;9.57;;
7432;SDS011;32233;49.500;7.764;2023-01-29T09:26:03;10.80;;;7.00;;
7432;SDS011;32233;49.500;7.764;2023-01-29T09:28:29;10.97;;;8.13;;
7432;SDS011;32233;49.500;7.764;2023-01-29T09:30:59;9.33;;;7.07;;
7432;SDS011;32233;49.500;7.764;2023-01-29T09:33:27;9.60;;;6.77;;
7432;SDS011;32233;49.500;7.764;2023-01-29T09:35:54;16.63;;;10.90;;
7432;SDS011;32233;49.500;7.764;2023-01-29T09:38:21;10.00;;;7.27;;
7432;SDS011;32233;49.500;7.764;2023-01-29T09:43:46;13.37;;;7.93;;
7432;SDS011;32233;49.500;7.764;2023-01-29T09:48:51;8.93;;;5.70;;
7432;SDS011;32233;49.500;7.764;2023-01-29T09:51:27;5.23;;;4.73;;
7432;SDS011;32233;49.500;7.764;2023-01-29T09:54:33;6.70;;;5.33;;
7432;SDS011;32233;49.500;7.764;2023-01-29T09:56:59;5.80;;;5.20;;
7432;SDS011;32233;49.500;7.764;2023-01-29T09:59:26;6.47;;;5.03;;
7432;SDS011;32233;49.500;7.764;2023-01-29T10:10:49;7.17;;;5.27;;
7432;SDS011;32233;49.500;7.764;2023-01-29T10:13:42;7.37;;;5.43;;
7432;SDS011;32233;49.500;7.764;2023-01-29T10:24:25;6.27;;;5.10;;
7432;SDS011;32233;49.500;7.764;2023-01-29T10:26:56;6.37;;;5.30;;
7432;SDS011;32233;49.500;7.764;2023-01-29T10:29:23;6.80;;;5.30;;
7432;SDS011;32233;49.500;7.764;2023-01-29T10:31:53;5.97;;;4.63;;
7432;SDS011;32233;49.500;7.764;2023-01-29T10:37:07;6.47;;;4.70;;
7432;SDS011;32233;49.500;7.764;2023-01-29T10:39:41;5.80;;;4.80;;
7432;SDS011;32233;49.500;7.764;2023-01-29T10:44:41;5.00;;;4.40;;
7432;SDS011;32233;49.500;7.764;2023-01-29T10:55:51;5.27;;;4.77;;
7432;SDS011;32233;49.500;7.764;2023-01-29T10:58:35;5.60;;;4.60;;
7432;SDS011;32233;49.500;7.764;2023-01-29T11:01:08;6.07;;;4.80;;
7432;SDS011;32233;49.500;7.764;2023-01-29T11:03:36;5.47;;;4.87;;
7432;SDS011;32233;49.500;7.764;2023-01-29T11:06:16;6.70;;;4.70;;
7432;SDS011;32233;49.500;7.764;2023-01-29T11:11:56;5.00;;;4.60;;
7432;SDS011;32233;49.500;7.764;2023-01-29T11:14:27;6.07;;;4.53;;
7432;SDS011;32233;49.500;7.764;2023-01-29T11:16:54;5.53;;;5.03;;
7432;SDS011;32233;49.500;7.764;2023-01-29T11:19:38;5.47;;;4.70;;
7432;SDS011;32233;49.500;7.764;2023-01-29T11:22:13;5.27;;;4.77;;
7432;SDS011;32233;49.500;7.764;2023-01-29T11:24:41;5.70;;;5.20;;
7432;SDS011;32233;49.500;7.764;2023-01-29T11:29:48;4.83;;;4.43;;
7432;SDS011;32233;49.500;7.764;2023-01-29T11:37:45;6.30;;;5.70;;
7432;SDS011;32233;49.500;7.764;2023-01-29T11:42:45;5.80;;;4.67;;
7432;SDS011;32233;49.500;7.764;2023-01-29T11:47:49;6.20;;;5.63;;
7432;SDS011;32233;49.500;7.764;2023-01-29T11:50:23;11.63;;;7.33;;
7432;SDS011;32233;49.500;7.764;2023-01-29T11:52:52;7.90;;;6.40;;
7432;SDS011;32233;49.500;7.764;2023-01-29T11:55:21;6.67;;;5.50;;
7432;SDS011;32233;49.500;7.764;2023-01-29T11:57:50;6.00;;;4.90;;
7432;SDS011;32233;49.500;7.764;2023-01-29T12:00:24;5.57;;;5.03;;
7432;SDS011;32233;49.500;7.764;2023-01-29T12:02:54;4.90;;;4.40;;
7432;SDS011;32233;49.500;7.764;2023-01-29T12:05:27;5.53;;;4.97;;
7432;SDS011;32233;49.500;7.764;2023-01-29T12:07:55;5.77;;;4.90;;
7432;SDS011;32233;49.500;7.764;2023-01-29T12:10:32;5.63;;;5.00;;
7432;SDS011;32233;49.500;7.764;2023-01-29T12:13:04;4.97;;;4.47;;
7432;SDS011;32233;49.500;7.764;2023-01-29T12:15:41;5.57;;;4.90;;
7432;SDS011;32233;49.500;7.764;2023-01-29T12:21:02;5.67;;;5.17;;
7432;SDS011;32233;49.500;7.764;2023-01-29T12:26:23;5.90;;;5.30;;
7432;SDS011;32233;49.500;7.764;2023-01-29T12:31:49;6.70;;;5.70;;
7432;SDS011;32233;49.500;7.764;2023-01-29T12:39:29;5.80;;;5.27;;
7432;SDS011;32233;49.500;7.764;2023-01-29T12:42:01;7.17;;;5.30;;
7432;SDS011;32233;49.500;7.764;2023-01-29T12:44:34;8.80;;;5.97;;
7432;SDS011;32233;49.500;7.764;2023-01-29T12:47:11;7.47;;;5.70;;
7432;SDS011;32233;49.500;7.764;2023-01-29T12:49:44;9.07;;;5.90;;
7432;SDS011;32233;49.500;7.764;2023-01-29T12:55:02;5.63;;;4.83;;
7432;SDS011;32233;49.500;7.764;2023-01-29T13:00:26;6.53;;;5.27;;
7432;SDS011;32233;49.500;7.764;2023-01-29T13:03:00;6.67;;;5.50;;
7432;SDS011;32233;49.500;7.764;2023-01-29T13:05:44;7.37;;;6.67;;
7432;SDS011;32233;49.500;7.764;2023-01-29T13:08:17;6.17;;;5.53;;
7432;SDS011;32233;49.500;7.764;2023-01-29T13:10:51;7.23;;;6.53;;
7432;SDS011;32233;49.500;7.764;2023-01-29T13:16:11;8.47;;;5.53;;
7432;SDS011;32233;49.500;7.764;2023-01-29T13:18:48;6.90;;;6.17;;
7432;SDS011;32233;49.500;7.764;2023-01-29T13:21:40;6.27;;;5.67;;
7432;SDS011;32233;49.500;7.764;2023-01-29T13:24:11;6.93;;;6.23;;
7432;SDS011;32233;49.500;7.764;2023-01-29T13:26:44;8.23;;;6.07;;
7432;SDS011;32233;49.500;7.764;2023-01-29T13:29:18;8.57;;;6.43;;
7432;SDS011;32233;49.500;7.764;2023-01-29T13:31:46;6.13;;;5.53;;
7432;SDS011;32233;49.500;7.764;2023-01-29T13:34:22;7.00;;;6.30;;
7432;SDS011;32233;49.500;7.764;2023-01-29T13:36:51;6.70;;;5.80;;
7432;SDS011;32233;49.500;7.764;2023-01-29T13:39:27;9.33;;;6.70;;
7432;SDS011;32233;49.500;7.764;2023-01-29T13:41:56;6.90;;;5.97;;
7432;SDS011;32233;49.500;7.764;2023-01-29T13:44:25;6.63;;;5.93;;
7432;SDS011;32233;49.500;7.764;2023-01-29T13:46:55;7.33;;;6.50;;
7432;SDS011;32233;49.500;7.764;2023-01-29T13:49:37;7.90;;;6.70;;
7432;SDS011;32233;49.500;7.764;2023-01-29T13:52:13;7.90;;;6.90;;
7432;SDS011;32233;49.500;7.764;2023-01-29T13:54:50;8.70;;;6.40;;
7432;SDS011;32233;49.500;7.764;2023-01-29T14:07:58;8.50;;;7.07;;
7432;SDS011;32233;49.500;7.764;2023-01-29T14:10:26;8.77;;;7.10;;
7432;SDS011;32233;49.500;7.764;2023-01-29T14:15:33;8.10;;;7.13;;
7432;SDS011;32233;49.500;7.764;2023-01-29T14:25:55;8.43;;;7.23;;
7432;SDS011;32233;49.500;7.764;2023-01-29T14:28:25;12.63;;;8.07;;
7432;SDS011;32233;49.500;7.764;2023-01-29T14:30:54;11.37;;;7.10;;
7432;SDS011;32233;49.500;7.764;2023-01-29T14:33:23;8.03;;;7.13;;
7432;SDS011;32233;49.500;7.764;2023-01-29T14:35:53;12.13;;;7.57;;
7432;SDS011;32233;49.500;7.764;2023-01-29T14:38:24;7.30;;;6.60;;
7432;SDS011;32233;49.500;7.764;2023-01-29T14:46:59;7.67;;;6.57;;
7432;SDS011;32233;49.500;7.764;2023-01-29T14:52:24;8.33;;;7.23;;
7432;SDS011;32233;49.500;7.764;2023-01-29T14:54:58;9.90;;;7.30;;
7432;SDS011;32233;49.500;7.764;2023-01-29T14:57:28;9.17;;;7.50;;
7432;SDS011;32233;49.500;7.764;2023-01-29T14:59:56;9.80;;;7.43;;
7432;SDS011;32233;49.500;7.764;2023-01-29T15:02:26;9.03;;;7.43;;
7432;SDS011;32233;49.500;7.764;2023-01-29T15:05:03;10.43;;;7.73;;
7432;SDS011;32233;49.500;7.764;2023-01-29T15:10:47;9.43;;;7.53;;
7432;SDS011;32233;49.500;7.764;2023-01-29T15:13:43;9.03;;;7.63;;
7432;SDS011;32233;49.500;7.764;2023-01-29T15:16:18;10.63;;;8.03;;
7432;SDS011;32233;49.500;7.764;2023-01-29T15:18:50;9.33;;;8.17;;
7432;SDS011;32233;49.500;7.764;2023-01-29T15:21:20;11.93;;;8.43;;
7432;SDS011;32233;49.500;7.764;2023-01-29T15:23:46;11.67;;;9.17;;
7432;SDS011;32233;49.500;7.764;2023-01-29T15:26:18;13.20;;;8.80;;
7432;SDS011;32233;49.500;7.764;2023-01-29T15:28:53;14.90;;;9.87;;
7432;SDS011;32233;49.500;7.764;2023-01-29T15:31:29;16.07;;;9.90;;
7432;SDS011;32233;49.500;7.764;2023-01-29T15:33:55;14.30;;;10.37;;
7432;SDS011;32233;49.500;7.764;2023-01-29T15:36:26;16.90;;;10.73;;
7432;SDS011;32233;49.500;7.764;2023-01-29T15:41:37;17.73;;;10.43;;
7432;SDS011;32233;49.500;7.764;2023-01-29T15:44:07;14.90;;;10.60;;
7432;SDS011;32233;49.500;7.764;2023-01-29T15:46:39;17.50;;;10.97;;
7432;SDS011;32233;49.500;7.764;2023-01-29T15:49:09;16.03;;;10.63;;
7432;SDS011;32233;49.500;7.764;2023-01-29T15:51:41;17.23;;;11.47;;
7432;SDS011;32233;49.500;7.764;2023-01-29T15:54:09;16.53;;;11.30;;
7432;SDS011;32233;49.500;7.764;2023-01-29T15:56:48;17.10;;;10.63;;
7432;SDS011;32233;49.500;7.764;2023-01-29T15:59:17;18.43;;;10.93;;
7432;SDS011;32233;49.500;7.764;2023-01-29T16:01:47;16.43;;;10.33;;
7432;SDS011;32233;49.500;7.764;2023-01-29T16:04:24;13.47;;;9.13;;
7432;SDS011;32233;49.500;7.764;2023-01-29T16:06:54;12.50;;;9.20;;
7432;SDS011;32233;49.500;7.764;2023-01-29T16:09:22;14.37;;;9.10;;
7432;SDS011;32233;49.500;7.764;2023-01-29T16:11:52;14.93;;;9.30;;
7432;SDS011;32233;49.500;7.764;2023-01-29T16:14:20;11.83;;;9.47;;
7432;SDS011;32233;49.500;7.764;2023-01-29T16:16:50;12.63;;;8.47;;
7432;SDS011;32233;49.500;7.764;2023-01-29T16:19:22;12.90;;;8.77;;
7432;SDS011;32233;49.500;7.764;2023-01-29T16:22:03;13.40;;;8.40;;
7432;SDS011;32233;49.500;7.764;2023-01-29T16:24:33;11.50;;;7.83;;
7432;SDS011;32233;49.500;7.764;2023-01-29T16:27:05;11.63;;;8.20;;
7432;SDS011;32233;49.500;7.764;2023-01-29T16:29:36;12.47;;;9.03;;
7432;SDS011;32233;49.500;7.764;2023-01-29T16:32:04;12.30;;;7.90;;
7432;SDS011;32233;49.500;7.764;2023-01-29T16:34:33;11.60;;;8.93;;
7432;SDS011;32233;49.500;7.764;2023-01-29T16:37:06;11.43;;;7.97;;
7432;SDS011;32233;49.500;7.764;2023-01-29T16:39:44;14.47;;;9.90;;
7432;SDS011;32233;49.500;7.764;2023-01-29T16:44:45;12.07;;;8.73;;
7432;SDS011;32233;49.500;7.764;2023-01-29T16:47:25;12.03;;;8.20;;
7432;SDS011;32233;49.500;7.764;2023-01-29T16:53:18;13.67;;;9.43;;
7432;SDS011;32233;49.500;7.764;2023-01-29T16:55:48;13.37;;;9.30;;
7432;SDS011;32233;49.500;7.764;2023-01-29T17:00:46;17.90;;;12.33;;
7432;SDS011;32233;49.500;7.764;2023-01-29T17:03:19;14.10;;;9.90;;
7432;SDS011;32233;49.500;7.764;2023-01-29T17:05:46;12.90;;;9.77;;
7432;SDS011;32233;49.500;7.764;2023-01-29T17:08:23;14.87;;;9.70;;
7432;SDS011;32233;49.500;7.764;2023-01-29T17:10:52;15.33;;;10.50;;
7432;SDS011;32233;49.500;7.764;2023-01-29T17:13:24;16.77;;;9.47;;
7432;SDS011;32233;49.500;7.764;2023-01-29T17:16:02;15.30;;;9.93;;
7432;SDS011;32233;49.500;7.764;2023-01-29T17:18:39;14.27;;;9.90;;
7432;SDS011;32233;49.500;7.764;2023-01-29T17:21:06;14.97;;;9.83;;
7432;SDS011;32233;49.500;7.764;2023-01-29T17:23:32;13.37;;;9.47;;
7432;SDS011;32233;49.500;7.764;2023-01-29T17:25:59;16.20;;;10.50;;
7432;SDS011;32233;49.500;7.764;2023-01-29T17:28:26;16.27;;;10.47;;
7432;SDS011;32233;49.500;7.764;2023-01-29T17:30:52;19.77;;;13.00;;
7432;SDS011;32233;49.500;7.764;2023-01-29T17:33:32;19.00;;;11.87;;
7432;SDS011;32233;49.500;7.764;2023-01-29T17:35:59;20.77;;;12.77;;
7432;SDS011;32233;49.500;7.764;2023-01-29T17:38:26;20.87;;;13.00;;
7432;SDS011;32233;49.500;7.764;2023-01-29T17:41:00;18.73;;;11.87;;
7432;SDS011;32233;49.500;7.764;2023-01-29T17:43:31;19.03;;;11.70;;
7432;SDS011;32233;49.500;7.764;2023-01-29T17:45:58;16.80;;;11.47;;
7432;SDS011;32233;49.500;7.764;2023-01-29T17:48:26;16.67;;;11.33;;
7432;SDS011;32233;49.500;7.764;2023-01-29T17:50:54;18.53;;;11.57;;
7432;SDS011;32233;49.500;7.764;2023-01-29T17:53:23;19.50;;;13.37;;
7432;SDS011;32233;49.500;7.764;2023-01-29T17:56:01;18.30;;;12.60;;
7432;SDS011;32233;49.500;7.764;2023-01-29T17:58:28;18.77;;;12.43;;
7432;SDS011;32233;49.500;7.764;2023-01-29T18:00:54;19.07;;;12.47;;
7432;SDS011;32233;49.500;7.764;2023-01-29T18:03:21;28.40;;;18.37;;
7432;SDS011;32233;49.500;7.764;2023-01-29T18:05:48;22.57;;;13.77;;
7432;SDS011;32233;49.500;7.764;2023-01-29T18:11:11;19.57;;;12.43;;
7432;SDS011;32233;49.500;7.764;2023-01-29T18:13:38;19.00;;;12.50;;
7432;SDS011;32233;49.500;7.764;2023-01-29T18:16:07;18.60;;;12.00;;
7432;SDS011;32233;49.500;7.764;2023-01-29T18:18:34;20.00;;;12.93;;